Terminal Aerodrome Forecast
Issued by NWS Twin Cities, MN

Home | Current Version | Previous Version | Graphics & Text | Print | Product List | Glossary On
Versions: 1 2 3 4 5 6 7 8 9 10 11 12 13 14 15 16 17 18 19 20 21 22 23 24 25 26 27 28
000
FTUS43 KMPX 220900 AAA
TAFMSP
TAF AMD
KMSP 220900Z 2209/2312 23006KT P6SM FEW020 BKN040
     FM221100 25007KT P6SM SCT020 BKN100
      TEMPO 2211/2213 BKN020
     FM221300 29013KT P6SM SCT030
     FM221600 31016G24KT P6SM SCT040 SCT250
     FM230000 34007KT P6SM FEW250=

USA.gov is the U.S. government's official web portal to all federal, state and local government web resources and services.